SAS867 ENBR-ENML
Flight info
| Callsign | SAS867 |
|---|---|
| Flight time | 0h 33m |
| Altitude | 29000 |
| Route | OLDAS DCT TUMIM |
| Aircraft | B738/M-SDE2E3FGHIRWXY/LB1 |
Departure
| Time | 2026-04-21 15:16 |
|---|---|
| Airport | Bergen Airport, Flesland (ENBR) |
Arrival
| Time | 2026-04-21 15:49 |
|---|---|
| Airport | Molde Airport, Årø (ENML) |
| Time | Latitude | Longitude | Altitude | Speed | Heading |
|---|---|---|---|---|---|
| 2026-04-21 14:57 | 60.28741 | 5.22904 | 175 ft | 0 kts | 81° |
| 2026-04-21 15:10 | 60.28739 | 5.22884 | 175 ft | 2 kts | 81° |
| 2026-04-21 15:11 | 60.28737 | 5.22853 | 174 ft | 2 kts | 80° |
| 2026-04-21 15:11 | 60.28734 | 5.22821 | 174 ft | 2 kts | 80° |
| 2026-04-21 15:11 | 60.28734 | 5.22814 | 174 ft | 0 kts | 80° |
| 2026-04-21 15:13 | 60.28719 | 5.22827 | 174 ft | 6 kts | 188° |
| 2026-04-21 15:13 | 60.28682 | 5.22708 | 171 ft | 15 kts | 254° |
| 2026-04-21 15:13 | 60.28668 | 5.22452 | 169 ft | 21 kts | 274° |
| 2026-04-21 15:14 | 60.28577 | 5.22392 | 165 ft | 18 kts | 169° |
| 2026-04-21 15:14 | 60.28435 | 5.22440 | 161 ft | 24 kts | 170° |
| 2026-04-21 15:14 | 60.28297 | 5.22462 | 157 ft | 15 kts | 213° |
| 2026-04-21 15:14 | 60.28279 | 5.22266 | 153 ft | 14 kts | 274° |
| 2026-04-21 15:15 | 60.28323 | 5.22156 | 154 ft | 0 kts | 351° |
| 2026-04-21 15:15 | 60.28407 | 5.22128 | 155 ft | 45 kts | 351° |
| 2026-04-21 15:15 | 60.28990 | 5.21935 | 162 ft | 122 kts | 351° |
| 2026-04-21 15:15 | 60.30033 | 5.21574 | 360 ft | 169 kts | 351° |
| 2026-04-21 15:16 | 60.31230 | 5.21216 | 1262 ft | 180 kts | 351° |
| 2026-04-21 15:16 | 60.32512 | 5.20822 | 1952 ft | 197 kts | 351° |
| 2026-04-21 15:16 | 60.33987 | 5.20369 | 2405 ft | 227 kts | 351° |
| 2026-04-21 15:16 | 60.35611 | 5.19834 | 3004 ft | 249 kts | 351° |
| 2026-04-21 15:17 | 60.37347 | 5.19244 | 3964 ft | 256 kts | 352° |
| 2026-04-21 15:17 | 60.39101 | 5.18633 | 5121 ft | 255 kts | 351° |
| 2026-04-21 15:17 | 60.40863 | 5.18024 | 6191 ft | 256 kts | 351° |
| 2026-04-21 15:17 | 60.42638 | 5.17408 | 7196 ft | 259 kts | 350° |
| 2026-04-21 15:18 | 60.44436 | 5.16779 | 8077 ft | 267 kts | 350° |
| 2026-04-21 15:18 | 60.46278 | 5.16134 | 8883 ft | 275 kts | 349° |
| 2026-04-21 15:18 | 60.48185 | 5.15465 | 9737 ft | 280 kts | 349° |
| 2026-04-21 15:18 | 60.50134 | 5.14881 | 10609 ft | 286 kts | 353° |
| 2026-04-21 15:19 | 60.52183 | 5.14661 | 11042 ft | 308 kts | 357° |
| 2026-04-21 15:19 | 60.54433 | 5.14700 | 11277 ft | 334 kts | 1° |
| 2026-04-21 15:19 | 60.56803 | 5.14913 | 11894 ft | 345 kts | 1° |
| 2026-04-21 15:19 | 60.59193 | 5.15147 | 12644 ft | 351 kts | 1° |
| 2026-04-21 15:20 | 60.61649 | 5.15354 | 13527 ft | 354 kts | 1° |
| 2026-04-21 15:20 | 60.64137 | 5.15519 | 14324 ft | 360 kts | 360° |
| 2026-04-21 15:20 | 60.66664 | 5.15649 | 15009 ft | 366 kts | 0° |
| 2026-04-21 15:20 | 60.69224 | 5.15759 | 15796 ft | 368 kts | 0° |
| 2026-04-21 15:21 | 60.70931 | 5.15825 | 16298 ft | 371 kts | 0° |
| 2026-04-21 15:21 | 60.74378 | 5.15949 | 17269 ft | 377 kts | 0° |
| 2026-04-21 15:21 | 60.77022 | 5.16041 | 17995 ft | 382 kts | 0° |
| 2026-04-21 15:21 | 60.79691 | 5.16134 | 18723 ft | 386 kts | 0° |
| 2026-04-21 15:22 | 60.82403 | 5.16229 | 19355 ft | 390 kts | 0° |
| 2026-04-21 15:22 | 60.84208 | 5.16292 | 19776 ft | 393 kts | 0° |
| 2026-04-21 15:22 | 60.86959 | 5.16388 | 20438 ft | 397 kts | 0° |
| 2026-04-21 15:22 | 60.89737 | 5.16487 | 21052 ft | 401 kts | 0° |
| 2026-04-21 15:23 | 60.92549 | 5.16587 | 21673 ft | 405 kts | 360° |
| 2026-04-21 15:23 | 60.95380 | 5.16687 | 22264 ft | 409 kts | 0° |
| 2026-04-21 15:23 | 60.98247 | 5.16787 | 22860 ft | 413 kts | 0° |
| 2026-04-21 15:23 | 61.01136 | 5.16889 | 23460 ft | 417 kts | 0° |
| 2026-04-21 15:24 | 61.04015 | 5.16993 | 24068 ft | 419 kts | 0° |
| 2026-04-21 15:24 | 61.06920 | 5.17510 | 24650 ft | 420 kts | 15° |
| 2026-04-21 15:24 | 61.09603 | 5.19816 | 25390 ft | 415 kts | 28° |
| 2026-04-21 15:24 | 61.12112 | 5.22749 | 26211 ft | 410 kts | 31° |
| 2026-04-21 15:25 | 61.14562 | 5.25788 | 26821 ft | 411 kts | 31° |
| 2026-04-21 15:25 | 61.16996 | 5.28763 | 27371 ft | 412 kts | 30° |
| 2026-04-21 15:25 | 61.19524 | 5.31685 | 27433 ft | 419 kts | 28° |
| 2026-04-21 15:25 | 61.22094 | 5.34506 | 27470 ft | 415 kts | 28° |
| 2026-04-21 15:26 | 61.24644 | 5.37279 | 27455 ft | 410 kts | 28° |
| 2026-04-21 15:26 | 61.27153 | 5.40039 | 27463 ft | 408 kts | 28° |
| 2026-04-21 15:26 | 61.29648 | 5.42828 | 27468 ft | 408 kts | 29° |
| 2026-04-21 15:26 | 61.32148 | 5.45658 | 27464 ft | 408 kts | 29° |
| 2026-04-21 15:27 | 61.34630 | 5.48492 | 27479 ft | 408 kts | 29° |
| 2026-04-21 15:27 | 61.37096 | 5.51325 | 27469 ft | 408 kts | 29° |
| 2026-04-21 15:27 | 61.39578 | 5.54184 | 27463 ft | 401 kts | 29° |
| 2026-04-21 15:27 | 61.42002 | 5.56982 | 27175 ft | 397 kts | 29° |
| 2026-04-21 15:28 | 61.44386 | 5.59739 | 26867 ft | 392 kts | 29° |
| 2026-04-21 15:28 | 61.46766 | 5.62494 | 26423 ft | 389 kts | 30° |
| 2026-04-21 15:28 | 61.49132 | 5.65239 | 26011 ft | 384 kts | 29° |
| 2026-04-21 15:28 | 61.51462 | 5.67947 | 25592 ft | 381 kts | 29° |
| 2026-04-21 15:29 | 61.53782 | 5.70646 | 25183 ft | 378 kts | 29° |
| 2026-04-21 15:29 | 61.56046 | 5.73285 | 24777 ft | 376 kts | 29° |
| 2026-04-21 15:29 | 61.58331 | 5.75953 | 24371 ft | 373 kts | 29° |
| 2026-04-21 15:29 | 61.60590 | 5.78595 | 23957 ft | 371 kts | 29° |
| 2026-04-21 15:30 | 61.62842 | 5.81234 | 23470 ft | 369 kts | 29° |
| 2026-04-21 15:30 | 61.65078 | 5.83857 | 23078 ft | 365 kts | 29° |
| 2026-04-21 15:30 | 61.67293 | 5.86459 | 22653 ft | 361 kts | 29° |
| 2026-04-21 15:30 | 61.69458 | 5.89007 | 22260 ft | 358 kts | 29° |
| 2026-04-21 15:31 | 61.71616 | 5.91551 | 21858 ft | 354 kts | 29° |
| 2026-04-21 15:31 | 61.73789 | 5.94010 | 21469 ft | 351 kts | 26° |
| 2026-04-21 15:31 | 61.75977 | 5.96159 | 21178 ft | 344 kts | 24° |
| 2026-04-21 15:31 | 61.78175 | 5.98198 | 20731 ft | 344 kts | 23° |
| 2026-04-21 15:32 | 61.80361 | 6.00214 | 20355 ft | 341 kts | 24° |
| 2026-04-21 15:32 | 61.82526 | 6.02235 | 19947 ft | 339 kts | 24° |
| 2026-04-21 15:32 | 61.84673 | 6.04265 | 19566 ft | 337 kts | 24° |
| 2026-04-21 15:32 | 61.86785 | 6.06281 | 19190 ft | 335 kts | 25° |
| 2026-04-21 15:33 | 61.88906 | 6.08318 | 18815 ft | 333 kts | 25° |
| 2026-04-21 15:33 | 61.91020 | 6.10357 | 18366 ft | 332 kts | 25° |
| 2026-04-21 15:33 | 61.93119 | 6.12386 | 17971 ft | 330 kts | 25° |
| 2026-04-21 15:33 | 61.95183 | 6.14383 | 17571 ft | 328 kts | 25° |
| 2026-04-21 15:34 | 61.97251 | 6.16387 | 17176 ft | 326 kts | 25° |
| 2026-04-21 15:34 | 61.99309 | 6.18383 | 16791 ft | 324 kts | 25° |
| 2026-04-21 15:34 | 62.01361 | 6.20378 | 16418 ft | 321 kts | 24° |
| 2026-04-21 15:34 | 62.03391 | 6.22358 | 16034 ft | 319 kts | 25° |
| 2026-04-21 15:35 | 62.05404 | 6.24327 | 15673 ft | 317 kts | 24° |
| 2026-04-21 15:35 | 62.07384 | 6.26266 | 15293 ft | 316 kts | 24° |
| 2026-04-21 15:35 | 62.09383 | 6.28227 | 14913 ft | 315 kts | 24° |
| 2026-04-21 15:35 | 62.11370 | 6.30180 | 14537 ft | 313 kts | 24° |
| 2026-04-21 15:36 | 62.13350 | 6.32127 | 14143 ft | 312 kts | 24° |
| 2026-04-21 15:36 | 62.15318 | 6.34066 | 13723 ft | 311 kts | 24° |
| 2026-04-21 15:36 | 62.17258 | 6.35979 | 13329 ft | 309 kts | 24° |
| 2026-04-21 15:36 | 62.19210 | 6.37907 | 12947 ft | 307 kts | 24° |
| 2026-04-21 15:37 | 62.21142 | 6.39819 | 12567 ft | 304 kts | 24° |
| 2026-04-21 15:37 | 62.23063 | 6.41721 | 12186 ft | 302 kts | 24° |
| 2026-04-21 15:37 | 62.24967 | 6.43610 | 11819 ft | 301 kts | 24° |
| 2026-04-21 15:37 | 62.26838 | 6.45469 | 11442 ft | 299 kts | 24° |
| 2026-04-21 15:38 | 62.28747 | 6.47367 | 11085 ft | 297 kts | 24° |
| 2026-04-21 15:38 | 62.30599 | 6.49210 | 10746 ft | 295 kts | 24° |
| 2026-04-21 15:38 | 62.32444 | 6.51051 | 10668 ft | 292 kts | 24° |
| 2026-04-21 15:38 | 62.34289 | 6.52894 | 10551 ft | 289 kts | 25° |
| 2026-04-21 15:39 | 62.36083 | 6.54645 | 10535 ft | 274 kts | 23° |
| 2026-04-21 15:39 | 62.37785 | 6.56248 | 10511 ft | 260 kts | 23° |
| 2026-04-21 15:39 | 62.39402 | 6.57762 | 10516 ft | 245 kts | 23° |
| 2026-04-21 15:39 | 62.40912 | 6.59183 | 10499 ft | 233 kts | 23° |
| 2026-04-21 15:40 | 62.42384 | 6.60575 | 10523 ft | 229 kts | 23° |
| 2026-04-21 15:40 | 62.43872 | 6.61984 | 10549 ft | 238 kts | 23° |
| 2026-04-21 15:40 | 62.45405 | 6.63451 | 10531 ft | 242 kts | 24° |
| 2026-04-21 15:40 | 62.46895 | 6.65029 | 10548 ft | 241 kts | 26° |
| 2026-04-21 15:41 | 62.48386 | 6.66671 | 10471 ft | 237 kts | 26° |
| 2026-04-21 15:41 | 62.49857 | 6.68293 | 10093 ft | 238 kts | 26° |
| 2026-04-21 15:41 | 62.51339 | 6.69917 | 9509 ft | 242 kts | 26° |
| 2026-04-21 15:41 | 62.52917 | 6.71640 | 8516 ft | 263 kts | 26° |
| 2026-04-21 15:42 | 62.54555 | 6.73428 | 8034 ft | 261 kts | 26° |
| 2026-04-21 15:42 | 62.56149 | 6.75168 | 7568 ft | 258 kts | 26° |
| 2026-04-21 15:42 | 62.57848 | 6.76251 | 7131 ft | 253 kts | 358° |
| 2026-04-21 15:42 | 62.59536 | 6.75730 | 6902 ft | 241 kts | 344° |
| 2026-04-21 15:43 | 62.61105 | 6.74551 | 6545 ft | 236 kts | 340° |
| 2026-04-21 15:43 | 62.62634 | 6.73314 | 6192 ft | 231 kts | 340° |
| 2026-04-21 15:43 | 62.64134 | 6.72348 | 5966 ft | 221 kts | 359° |
| 2026-04-21 15:43 | 62.65545 | 6.73301 | 5546 ft | 219 kts | 40° |
| 2026-04-21 15:44 | 62.66396 | 6.75883 | 5519 ft | 203 kts | 64° |
| 2026-04-21 15:44 | 62.66925 | 6.78707 | 5207 ft | 201 kts | 69° |
| 2026-04-21 15:44 | 62.67381 | 6.81567 | 4870 ft | 198 kts | 71° |
| 2026-04-21 15:44 | 62.67818 | 6.84347 | 4666 ft | 188 kts | 70° |
| 2026-04-21 15:45 | 62.68237 | 6.87022 | 4285 ft | 187 kts | 71° |
| 2026-04-21 15:45 | 62.68660 | 6.89691 | 3927 ft | 185 kts | 71° |
| 2026-04-21 15:45 | 62.69081 | 6.92296 | 3566 ft | 183 kts | 70° |
| 2026-04-21 15:45 | 62.69507 | 6.94907 | 3218 ft | 181 kts | 70° |
| 2026-04-21 15:46 | 62.69918 | 6.97455 | 2881 ft | 178 kts | 70° |
| 2026-04-21 15:46 | 62.70342 | 6.99970 | 2592 ft | 173 kts | 69° |
| 2026-04-21 15:46 | 62.70742 | 7.02388 | 2331 ft | 166 kts | 70° |
| 2026-04-21 15:46 | 62.71109 | 7.04720 | 2094 ft | 159 kts | 70° |
| 2026-04-21 15:47 | 62.71459 | 7.06968 | 1872 ft | 155 kts | 69° |
| 2026-04-21 15:47 | 62.71804 | 7.09181 | 1672 ft | 157 kts | 69° |
| 2026-04-21 15:47 | 62.72161 | 7.11466 | 1428 ft | 159 kts | 69° |
| 2026-04-21 15:47 | 62.72515 | 7.13731 | 1203 ft | 158 kts | 69° |
| 2026-04-21 15:48 | 62.72871 | 7.16005 | 972 ft | 158 kts | 69° |
| 2026-04-21 15:48 | 62.73219 | 7.18225 | 791 ft | 149 kts | 69° |
| 2026-04-21 15:48 | 62.73547 | 7.20316 | 502 ft | 141 kts | 71° |
| 2026-04-21 15:48 | 62.73867 | 7.22353 | 319 ft | 145 kts | 71° |
| 2026-04-21 15:49 | 62.74184 | 7.24393 | 104 ft | 143 kts | 71° |
| 2026-04-21 15:49 | 62.74495 | 7.26360 | 16 ft | 122 kts | 71° |
| 2026-04-21 15:49 | 62.74661 | 7.27419 | 21 ft | 17 kts | 71° |
| 2026-04-21 15:49 | 62.74669 | 7.27577 | 19 ft | 10 kts | 73° |
| 2026-04-21 15:50 | 62.74692 | 7.27556 | 19 ft | 6 kts | 256° |
| 2026-04-21 15:50 | 62.74675 | 7.27470 | 21 ft | 7 kts | 245° |
| 2026-04-21 15:50 | 62.74653 | 7.27364 | 19 ft | 9 kts | 250° |
| 2026-04-21 15:50 | 62.74626 | 7.27180 | 16 ft | 17 kts | 252° |
| 2026-04-21 15:51 | 62.74582 | 7.26907 | 16 ft | 21 kts | 251° |
| 2026-04-21 15:51 | 62.74531 | 7.26592 | 17 ft | 23 kts | 250° |
| 2026-04-21 15:51 | 62.74480 | 7.26266 | 17 ft | 12 kts | 251° |
| 2026-04-21 15:51 | 62.74497 | 7.26130 | 17 ft | 11 kts | 339° |
| 2026-04-21 15:52 | 62.74567 | 7.26072 | 16 ft | 10 kts | 339° |
| 2026-04-21 15:52 | 62.74585 | 7.26057 | 17 ft | 1 kts | 339° |
| 2026-04-21 15:52 | 62.74586 | 7.26056 | 16 ft | 0 kts | 339° |